createdAt,value
2017-08-04T00:00:41.546Z,1001.5
2017-08-04T00:01:44.697Z,1001.5
2017-08-04T00:02:47.170Z,1001.5
2017-08-04T00:03:49.632Z,1001.4
2017-08-04T00:04:52.761Z,1001.4
2017-08-04T00:05:55.227Z,1001.5
2017-08-04T00:06:57.668Z,1001.5
2017-08-04T00:08:00.124Z,1001.5
2017-08-04T00:09:02.583Z,1001.4
2017-08-04T00:10:06.077Z,1001.5
2017-08-04T00:11:08.881Z,1001.4
2017-08-04T00:12:11.338Z,1001.4
2017-08-04T00:13:13.800Z,1001.5
2017-08-04T00:14:16.248Z,1001.4
2017-08-04T00:15:19.718Z,1001.4
2017-08-04T00:16:22.176Z,1001.4
2017-08-04T00:17:25.313Z,1001.5
2017-08-04T00:18:27.776Z,1001.4
2017-08-04T00:19:30.569Z,1001.4
2017-08-04T00:20:33.015Z,1001.4
2017-08-04T00:21:35.508Z,1001.4
2017-08-04T00:22:38.974Z,1001.4
2017-08-04T00:23:41.448Z,1001.5
2017-08-04T00:24:44.568Z,1001.5
2017-08-04T00:25:47.017Z,1001.5
2017-08-04T00:26:49.471Z,1001.4
2017-08-04T00:27:52.264Z,1001.4
2017-08-04T00:28:55.048Z,1001.4
2017-08-04T00:29:57.853Z,1001.4
2017-08-04T00:31:00.316Z,1001.3
2017-08-04T00:32:03.133Z,1001.3
2017-08-04T00:33:06.252Z,1001.3
2017-08-04T00:34:08.729Z,1001.3
2017-08-04T00:35:11.517Z,1001.3
2017-08-04T00:36:13.962Z,1001.3
2017-08-04T00:37:16.415Z,1001.4
2017-08-04T00:38:19.196Z,1001.4
2017-08-04T00:39:21.995Z,1001.4
2017-08-04T00:40:24.454Z,1001.4
2017-08-04T00:41:26.892Z,1001.4
2017-08-04T00:42:30.351Z,1001.4
2017-08-04T00:43:32.820Z,1001.3
2017-08-04T00:44:35.606Z,1001.4
2017-08-04T00:45:38.046Z,1001.4
2017-08-04T00:46:40.834Z,1001.4
2017-08-04T00:47:43.289Z,1001.3
2017-08-04T00:48:46.063Z,1001.4
2017-08-04T00:49:48.514Z,1001.4
2017-08-04T00:50:51.312Z,1001.4
2017-08-04T00:51:53.764Z,1001.4
2017-08-04T00:52:56.560Z,1001.4
2017-08-04T00:53:59.015Z,1001.4
2017-08-04T00:55:02.494Z,1001.4
2017-08-04T00:56:05.639Z,1001.4
2017-08-04T00:57:08.091Z,1001.3
2017-08-04T00:58:10.528Z,1001.4
2017-08-04T00:59:12.988Z,1001.4
2017-08-04T01:00:15.438Z,1001.4
2017-08-04T01:01:18.234Z,1001.4
2017-08-04T01:02:21.024Z,1001.4
2017-08-04T01:03:23.810Z,1001.4
2017-08-04T01:04:26.596Z,1001.5
2017-08-04T01:05:29.052Z,1001.4
2017-08-04T01:06:31.863Z,1001.4
2017-08-04T01:07:34.341Z,1001.5
2017-08-04T01:08:36.800Z,1001.5
2017-08-04T01:09:39.256Z,1001.5
2017-08-04T01:10:42.724Z,1001.4
2017-08-04T01:11:45.845Z,1001.4
2017-08-04T01:12:48.306Z,1001.4
2017-08-04T01:13:50.756Z,1001.5
2017-08-04T01:14:53.214Z,1001.5
2017-08-04T01:15:56.344Z,1001.5
2017-08-04T01:16:58.802Z,1001.5
2017-08-04T01:18:01.921Z,1001.5
2017-08-04T01:19:05.044Z,1001.5
2017-08-04T01:20:07.834Z,1001.6
2017-08-04T01:21:10.625Z,1001.5
2017-08-04T01:22:13.078Z,1001.5
2017-08-04T01:23:15.880Z,1001.5
2017-08-04T01:24:18.329Z,1001.5
2017-08-04T01:25:20.775Z,1001.6
2017-08-04T01:26:23.221Z,1001.6
2017-08-04T01:27:25.672Z,1001.5
2017-08-04T01:28:28.128Z,1001.5
2017-08-04T01:29:30.595Z,1001.5
2017-08-04T01:30:33.045Z,1001.5
2017-08-04T01:31:35.494Z,1001.6
2017-08-04T01:32:37.944Z,1001.6
2017-08-04T01:33:40.389Z,1001.6
2017-08-04T01:34:42.836Z,1001.5
2017-08-04T01:35:45.318Z,1001.6
2017-08-04T01:36:47.782Z,1001.6
2017-08-04T01:37:50.575Z,1001.5
2017-08-04T01:38:53.023Z,1001.5
2017-08-04T01:39:55.822Z,1001.5
2017-08-04T01:40:58.273Z,1001.5
2017-08-04T01:42:00.717Z,1001.5
2017-08-04T01:43:03.544Z,1001.6
2017-08-04T01:44:06.335Z,1001.5
2017-08-04T01:45:09.134Z,1001.6
2017-08-04T01:46:11.592Z,1001.5
2017-08-04T01:47:14.724Z,1001.6
2017-08-04T01:48:17.174Z,1001.6
2017-08-04T01:49:19.958Z,1001.6
2017-08-04T01:50:23.094Z,1001.6
2017-08-04T01:51:25.541Z,1001.6
2017-08-04T01:52:27.993Z,1001.6
2017-08-04T01:53:30.437Z,1001.6
2017-08-04T01:54:33.218Z,1001.7
2017-08-04T01:55:36.020Z,1001.7
2017-08-04T01:56:39.157Z,1001.7
2017-08-04T01:57:41.931Z,1001.7
2017-08-04T01:58:45.079Z,1001.7
2017-08-04T01:59:48.235Z,1001.7
2017-08-04T02:00:50.735Z,1001.7
2017-08-04T02:01:53.192Z,1001.7
2017-08-04T02:02:55.647Z,1001.7
2017-08-04T02:03:58.105Z,1001.7
2017-08-04T02:05:00.578Z,1001.7
2017-08-04T02:06:04.045Z,1001.7
2017-08-04T02:07:07.173Z,1001.7
2017-08-04T02:08:09.951Z,1001.7
2017-08-04T02:09:13.079Z,1001.7
2017-08-04T02:10:16.213Z,1001.7
2017-08-04T02:11:19.011Z,1001.7
2017-08-04T02:12:21.802Z,1001.6
2017-08-04T02:13:24.245Z,1001.6
2017-08-04T02:14:27.050Z,1001.6
2017-08-04T02:15:29.851Z,1001.7
2017-08-04T02:16:32.625Z,1001.7
2017-08-04T02:17:35.417Z,1001.6
2017-08-04T02:18:37.905Z,1001.7
2017-08-04T02:19:40.712Z,1001.7
2017-08-04T02:20:43.182Z,1001.6
2017-08-04T02:21:45.956Z,1001.6
2017-08-04T02:22:48.754Z,1001.5
2017-08-04T02:23:51.891Z,1001.5
2017-08-04T02:24:54.348Z,1001.6
2017-08-04T02:25:56.811Z,1001.6
2017-08-04T02:26:59.254Z,1001.6
2017-08-04T02:28:01.695Z,1001.6
2017-08-04T02:29:04.498Z,1001.6
2017-08-04T02:30:06.942Z,1001.6
2017-08-04T02:31:09.395Z,1001.6
2017-08-04T02:32:11.865Z,1001.5
2017-08-04T02:33:14.319Z,1001.6
2017-08-04T02:34:16.782Z,1001.6
2017-08-04T02:35:19.257Z,1001.6
2017-08-04T02:36:21.694Z,1001.5
2017-08-04T02:37:24.482Z,1001.6
2017-08-04T02:38:27.284Z,1001.6
2017-08-04T02:39:29.736Z,1001.6
2017-08-04T02:40:32.531Z,1001.6
2017-08-04T02:41:34.977Z,1001.6
2017-08-04T02:42:37.784Z,1001.6
2017-08-04T02:43:40.229Z,1001.6
2017-08-04T02:44:43.724Z,1001.6
2017-08-04T02:45:46.855Z,1001.6
2017-08-04T02:46:49.978Z,1001.6
2017-08-04T02:47:52.771Z,1001.6
2017-08-04T02:48:55.558Z,1001.6
2017-08-04T02:49:58.351Z,1001.6
2017-08-04T02:51:00.810Z,1001.6
2017-08-04T02:52:03.985Z,1001.6
2017-08-04T02:53:07.127Z,1001.6
2017-08-04T02:54:10.271Z,1001.6
2017-08-04T02:55:13.054Z,1001.6
2017-08-04T02:56:15.502Z,1001.6
2017-08-04T02:57:17.958Z,1001.6
2017-08-04T02:58:20.744Z,1001.6
2017-08-04T02:59:23.200Z,1001.6
2017-08-04T03:00:26.006Z,1001.6
2017-08-04T03:01:29.137Z,1001.6
2017-08-04T03:02:31.587Z,1001.6
2017-08-04T03:03:34.038Z,1001.6
2017-08-04T03:04:36.833Z,1001.6
2017-08-04T03:05:39.624Z,1001.6
2017-08-04T03:06:42.407Z,1001.6
2017-08-04T03:07:44.848Z,1001.6
2017-08-04T03:08:47.296Z,1001.7
2017-08-04T03:09:49.751Z,1001.7
2017-08-04T03:10:52.536Z,1001.7
2017-08-04T03:11:55.651Z,1001.7
2017-08-04T03:12:58.104Z,1001.7
2017-08-04T03:14:00.547Z,1001.7
2017-08-04T03:15:03.331Z,1001.7
2017-08-04T03:16:06.128Z,1001.7
2017-08-04T03:17:08.590Z,1001.6
2017-08-04T03:18:11.050Z,1001.7
2017-08-04T03:19:13.503Z,1001.6
2017-08-04T03:20:15.945Z,1001.6
2017-08-04T03:21:18.734Z,1001.6
2017-08-04T03:22:21.513Z,1001.6
2017-08-04T03:23:24.297Z,1001.7
2017-08-04T03:24:27.091Z,1001.6
2017-08-04T03:25:29.543Z,1001.6
2017-08-04T03:26:32.013Z,1001.6
2017-08-04T03:27:34.820Z,1001.6
2017-08-04T03:28:37.612Z,1001.6
2017-08-04T03:29:40.405Z,1001.6
2017-08-04T03:30:43.195Z,1001.6
2017-08-04T03:31:46.002Z,1001.6
2017-08-04T03:32:49.474Z,1001.5
2017-08-04T03:33:51.937Z,1001.6
2017-08-04T03:34:54.713Z,1001.6
2017-08-04T03:35:57.162Z,1001.6
2017-08-04T03:36:59.618Z,1001.5
2017-08-04T03:38:03.410Z,1001.6
2017-08-04T03:39:05.867Z,1001.6
2017-08-04T03:40:08.313Z,1001.5
2017-08-04T03:41:11.102Z,1001.5
2017-08-04T03:42:13.920Z,1001.6
2017-08-04T03:43:16.372Z,1001.6
2017-08-04T03:44:19.170Z,1001.5
2017-08-04T03:45:22.296Z,1001.5
2017-08-04T03:46:24.738Z,1001.5
2017-08-04T03:47:27.540Z,1001.5
2017-08-04T03:48:30.325Z,1001.4
2017-08-04T03:49:33.109Z,1001.5
2017-08-04T03:50:35.559Z,1001.5
2017-08-04T03:51:38.004Z,1001.5
2017-08-04T03:52:40.453Z,1001.5
2017-08-04T03:53:42.925Z,1001.5
2017-08-04T03:54:45.696Z,1001.5
2017-08-04T03:55:48.148Z,1001.5
2017-08-04T03:56:50.599Z,1001.4
2017-08-04T03:57:53.390Z,1001.5
2017-08-04T03:58:55.850Z,1001.5
2017-08-04T03:59:58.653Z,1001.5
2017-08-04T04:01:01.103Z,1001.4
2017-08-04T04:02:03.906Z,1001.5
2017-08-04T04:03:07.385Z,1001.5
2017-08-04T04:04:10.166Z,1001.5
2017-08-04T04:05:12.961Z,1001.5
2017-08-04T04:06:15.420Z,1001.5
2017-08-04T04:07:17.897Z,1001.5
2017-08-04T04:08:20.368Z,1001.5
2017-08-04T04:09:22.820Z,1001.5
2017-08-04T04:10:25.282Z,1001.6
2017-08-04T04:11:28.092Z,1001.6
2017-08-04T04:12:30.908Z,1001.6
2017-08-04T04:13:33.346Z,1001.6
2017-08-04T04:14:36.840Z,1001.7
2017-08-04T04:15:39.986Z,1001.7
2017-08-04T04:16:42.451Z,1001.7
2017-08-04T04:17:45.235Z,1001.8
2017-08-04T04:18:47.701Z,1001.6
2017-08-04T04:19:50.473Z,1001.6
2017-08-04T04:20:53.285Z,1001.7
2017-08-04T04:21:55.729Z,1001.7
2017-08-04T04:22:58.168Z,1001.7
2017-08-04T04:24:00.617Z,1001.7
2017-08-04T04:25:03.744Z,1001.7
2017-08-04T04:26:06.522Z,1001.6
2017-08-04T04:27:08.971Z,1001.6
2017-08-04T04:28:11.416Z,1001.6
2017-08-04T04:29:14.197Z,1001.6
2017-08-04T04:30:16.655Z,1001.5
2017-08-04T04:31:19.131Z,1001.6
2017-08-04T04:32:21.583Z,1001.6
2017-08-04T04:33:25.091Z,1001.6
2017-08-04T04:34:27.533Z,1001.6
2017-08-04T04:35:30.333Z,1001.6
2017-08-04T04:36:32.779Z,1001.6
2017-08-04T04:37:35.235Z,1001.6
2017-08-04T04:38:37.693Z,1001.6
2017-08-04T04:39:40.152Z,1001.6
2017-08-04T04:40:42.603Z,1001.6
2017-08-04T04:41:45.408Z,1001.6
2017-08-04T04:42:47.856Z,1001.6
2017-08-04T04:43:50.311Z,1001.6
2017-08-04T04:44:53.416Z,1001.6
2017-08-04T04:45:56.208Z,1001.6
2017-08-04T04:46:58.658Z,1001.5
2017-08-04T04:48:01.454Z,1001.5
2017-08-04T04:49:04.602Z,1001.5
2017-08-04T04:50:07.045Z,1001.5
2017-08-04T04:51:09.848Z,1001.5
2017-08-04T04:52:13.008Z,1001.5
2017-08-04T04:53:15.803Z,1001.4
2017-08-04T04:54:18.585Z,1001.4
2017-08-04T04:55:21.037Z,1001.4
2017-08-04T04:56:23.477Z,1001.4
2017-08-04T04:57:26.272Z,1001.4
2017-08-04T04:58:29.731Z,1001.5
2017-08-04T04:59:32.168Z,1001.5
2017-08-04T05:00:34.958Z,1001.5
2017-08-04T05:01:37.420Z,1001.5
2017-08-04T05:02:40.203Z,1001.5
2017-08-04T05:03:42.651Z,1001.5
2017-08-04T05:04:45.121Z,1001.6
2017-08-04T05:05:48.264Z,1001.5
2017-08-04T05:06:50.727Z,1001.6
2017-08-04T05:07:53.517Z,1001.5
2017-08-04T05:08:56.636Z,1001.6
2017-08-04T05:09:59.776Z,1001.6
2017-08-04T05:11:02.224Z,1001.6
2017-08-04T05:12:05.011Z,1001.7
2017-08-04T05:13:08.135Z,1001.6
2017-08-04T05:14:10.917Z,1001.7
2017-08-04T05:15:13.397Z,1001.7
2017-08-04T05:16:16.200Z,1001.6
2017-08-04T05:17:18.689Z,1001.7
2017-08-04T05:18:21.159Z,1001.7
2017-08-04T05:19:23.611Z,1001.6
2017-08-04T05:20:26.062Z,1001.7
2017-08-04T05:21:28.862Z,1001.7
2017-08-04T05:22:31.311Z,1001.7
2017-08-04T05:23:33.772Z,1001.6
2017-08-04T05:24:36.567Z,1001.6
2017-08-04T05:25:39.008Z,1001.6
2017-08-04T05:26:41.470Z,1001.6
2017-08-04T05:27:44.268Z,1001.7
2017-08-04T05:28:47.053Z,1001.7
2017-08-04T05:29:50.862Z,1001.6
2017-08-04T05:30:53.305Z,1001.7
2017-08-04T05:31:56.103Z,1001.6
2017-08-04T05:32:58.924Z,1001.6
2017-08-04T05:34:01.706Z,1001.7
2017-08-04T05:35:04.511Z,1001.7
2017-08-04T05:36:06.982Z,1001.7
2017-08-04T05:37:09.429Z,1001.6
2017-08-04T05:38:11.889Z,1001.6
2017-08-04T05:39:14.384Z,1001.6
2017-08-04T05:40:17.161Z,1001.7
2017-08-04T05:41:19.607Z,1001.7
2017-08-04T05:42:22.404Z,1001.7
2017-08-04T05:43:24.841Z,1001.7
2017-08-04T05:44:27.295Z,1001.6
2017-08-04T05:45:30.082Z,1001.7
2017-08-04T05:46:32.537Z,1001.6
2017-08-04T05:47:35.327Z,1001.7
2017-08-04T05:48:38.118Z,1001.7
2017-08-04T05:49:40.910Z,1001.6
2017-08-04T05:50:43.378Z,1001.5
2017-08-04T05:51:45.921Z,1001.7
2017-08-04T05:52:48.375Z,1001.7
2017-08-04T05:53:51.166Z,1001.7
2017-08-04T05:54:53.615Z,1001.6
2017-08-04T05:55:56.405Z,1001.7
2017-08-04T05:56:58.872Z,1001.6
2017-08-04T05:58:01.653Z,1001.5
2017-08-04T05:59:04.806Z,1001.5
2017-08-04T06:00:07.593Z,1001.5
2017-08-04T06:01:10.401Z,1001.5
2017-08-04T06:02:13.553Z,1001.6
2017-08-04T06:03:16.004Z,1001.6
2017-08-04T06:04:18.780Z,1001.4
2017-08-04T06:05:21.235Z,1001.5
2017-08-04T06:06:23.685Z,1001.6
2017-08-04T06:07:26.142Z,1001.5
2017-08-04T06:08:28.588Z,1001.5
2017-08-04T06:09:31.055Z,1001.5
2017-08-04T06:10:33.882Z,1001.5
2017-08-04T06:11:36.330Z,1001.5
2017-08-04T06:12:38.795Z,1001.5
2017-08-04T06:13:41.594Z,1001.5
2017-08-04T06:14:44.056Z,1001.7
2017-08-04T06:15:46.518Z,1001.7
2017-08-04T06:16:48.959Z,1001.7
2017-08-04T06:17:51.762Z,1001.6
2017-08-04T06:18:54.548Z,1001.6
2017-08-04T06:19:57.001Z,1001.6
2017-08-04T06:20:59.454Z,1001.6
2017-08-04T06:22:02.245Z,1001.6
2017-08-04T06:23:06.080Z,1001.6
2017-08-04T06:24:08.553Z,1001.5
2017-08-04T06:25:11.342Z,1001.5
2017-08-04T06:26:14.158Z,1001.6
2017-08-04T06:27:16.960Z,1001.5
2017-08-04T06:28:19.762Z,1001.6
2017-08-04T06:29:22.214Z,1001.5
2017-08-04T06:30:24.664Z,1001.4
2017-08-04T06:31:27.108Z,1001.5
2017-08-04T06:32:29.581Z,1001.5
2017-08-04T06:33:32.022Z,1001.5
2017-08-04T06:34:34.476Z,1001.3
2017-08-04T06:35:37.282Z,1001.3
2017-08-04T06:36:39.734Z,1001.2
2017-08-04T06:37:42.188Z,1001.3
2017-08-04T06:38:44.645Z,1001.4
2017-08-04T06:39:47.092Z,1001.5
2017-08-04T06:40:49.542Z,1001.4
2017-08-04T06:41:52.340Z,1001.5
2017-08-04T06:42:54.786Z,1001.5
2017-08-04T06:43:57.247Z,1001.6
2017-08-04T06:44:59.708Z,1001.5
2017-08-04T06:46:02.170Z,1001.6
2017-08-04T06:47:04.630Z,1001.5
2017-08-04T06:48:07.098Z,1001.4
2017-08-04T06:49:10.551Z,1001.5
2017-08-04T06:50:13.011Z,1001.5
2017-08-04T06:51:15.492Z,1001.5
2017-08-04T06:52:17.962Z,1001.5
2017-08-04T06:53:21.115Z,1001.5
2017-08-04T06:54:24.600Z,1001.6
2017-08-04T06:55:27.038Z,1001.6
2017-08-04T06:56:29.520Z,1001.5
2017-08-04T06:57:32.301Z,1001.5
2017-08-04T06:58:34.744Z,1001.4
2017-08-04T06:59:37.202Z,1001.5
2017-08-04T07:00:39.994Z,1001.5
2017-08-04T07:01:42.800Z,1001.4
2017-08-04T07:02:45.256Z,1001.4
2017-08-04T07:03:47.695Z,1001.4
2017-08-04T07:04:50.491Z,1001.3
2017-08-04T07:05:52.968Z,1001.3
2017-08-04T07:06:55.428Z,1001.4
2017-08-04T07:07:57.896Z,1001.3
2017-08-04T07:09:00.371Z,1001.3
2017-08-04T07:10:02.832Z,1001.3
2017-08-04T07:11:05.977Z,1001.3
2017-08-04T07:12:08.445Z,1001.3
2017-08-04T07:13:10.911Z,1001.3
2017-08-04T07:14:13.703Z,1001.3
2017-08-04T07:15:16.180Z,1001.3
2017-08-04T07:16:18.983Z,1001.3
2017-08-04T07:17:21.434Z,1001.4
2017-08-04T07:18:23.889Z,1001.4
2017-08-04T07:19:26.338Z,1001.4
2017-08-04T07:20:28.801Z,1001.4
2017-08-04T07:21:31.612Z,1001.3
2017-08-04T07:22:34.056Z,1001.4
2017-08-04T07:23:36.525Z,1001.4
2017-08-04T07:24:38.995Z,1001.4
2017-08-04T07:25:41.794Z,1001.3
2017-08-04T07:26:44.602Z,1001.3
2017-08-04T07:27:47.061Z,1001.3
2017-08-04T07:28:49.510Z,1001.2
2017-08-04T07:29:52.309Z,1001.3
2017-08-04T07:30:54.763Z,1001.3
2017-08-04T07:31:57.548Z,1001.2
2017-08-04T07:33:00.008Z,1001.3
2017-08-04T07:34:02.468Z,1001.3
2017-08-04T07:35:05.265Z,1001.3
2017-08-04T07:36:08.415Z,1001.3
2017-08-04T07:37:10.857Z,1001.4
2017-08-04T07:38:13.310Z,1001.3
2017-08-04T07:39:16.117Z,1001.4
2017-08-04T07:40:18.561Z,1001.3
2017-08-04T07:41:21.006Z,1001.3
2017-08-04T07:42:23.459Z,1001.3
2017-08-04T07:43:25.931Z,1001.3
2017-08-04T07:44:28.392Z,1001.3
2017-08-04T07:45:30.849Z,1001.3
2017-08-04T07:46:33.309Z,1001.2
2017-08-04T07:47:35.756Z,1001.2
2017-08-04T07:48:38.546Z,1001.2
2017-08-04T07:49:41.000Z,1001.2
2017-08-04T07:50:43.790Z,1001.2
2017-08-04T07:51:46.593Z,1001.1
2017-08-04T07:52:49.720Z,1001.3
2017-08-04T07:53:52.508Z,1001.3
2017-08-04T07:54:54.960Z,1001.3
2017-08-04T07:55:57.753Z,1001.3
2017-08-04T07:57:00.213Z,1001.4
2017-08-04T07:58:03.359Z,1001.3
2017-08-04T07:59:05.816Z,1001.3
2017-08-04T08:00:08.268Z,1001.2
2017-08-04T08:01:11.110Z,1001.3
2017-08-04T08:02:13.564Z,1001.3
2017-08-04T08:03:16.027Z,1001.3
2017-08-04T08:04:18.830Z,1001.2
2017-08-04T08:05:21.288Z,1001.2
2017-08-04T08:06:23.747Z,1001.2
2017-08-04T08:07:26.191Z,1001.2
2017-08-04T08:08:28.643Z,1001.3
2017-08-04T08:09:31.461Z,1001.3
2017-08-04T08:10:33.922Z,1001.5
2017-08-04T08:11:36.742Z,1001.3
2017-08-04T08:12:39.179Z,1001.2
2017-08-04T08:13:41.663Z,1001.3
2017-08-04T08:14:44.139Z,1001.3
2017-08-04T08:15:46.935Z,1001.2
2017-08-04T08:16:49.397Z,1001.2
2017-08-04T08:17:51.841Z,1001.2
2017-08-04T08:18:54.286Z,1001.2
2017-08-04T08:19:56.746Z,1001.2
2017-08-04T08:20:59.198Z,1001.2
2017-08-04T08:22:01.642Z,1001.2
2017-08-04T08:23:04.447Z,1001.2
2017-08-04T08:24:06.895Z,1001.2
2017-08-04T08:25:09.401Z,1001.2
2017-08-04T08:26:11.855Z,1001.1
2017-08-04T08:27:14.345Z,1001
2017-08-04T08:28:17.117Z,1001.1
2017-08-04T08:29:20.285Z,1001.1
2017-08-04T08:30:23.407Z,1001.1
2017-08-04T08:31:25.871Z,1001.2
2017-08-04T08:32:28.339Z,1001.1
2017-08-04T08:33:30.797Z,1001.1
2017-08-04T08:34:33.597Z,1001.2
2017-08-04T08:35:36.041Z,1001.1
2017-08-04T08:36:38.824Z,1001.1
2017-08-04T08:37:41.292Z,1001.1
2017-08-04T08:38:43.745Z,1001.1
2017-08-04T08:39:46.208Z,1001.1
2017-08-04T08:40:48.656Z,1001.1
2017-08-04T08:41:51.119Z,1001.2
2017-08-04T08:42:53.580Z,1001.1
2017-08-04T08:43:56.039Z,1001.2
2017-08-04T08:44:58.820Z,1001.2
2017-08-04T08:46:01.295Z,1001.2
2017-08-04T08:47:04.079Z,1001.1
2017-08-04T08:48:06.888Z,1001.1
2017-08-04T08:49:09.338Z,1000.8
2017-08-04T08:50:11.801Z,1001.1
2017-08-04T08:51:14.592Z,1001.1
2017-08-04T08:52:17.044Z,1001
2017-08-04T08:53:19.497Z,1001
2017-08-04T08:54:22.302Z,1001
2017-08-04T08:55:25.087Z,1001.2
2017-08-04T08:56:27.879Z,1001.1
2017-08-04T08:57:30.690Z,1001.1
2017-08-04T08:58:33.482Z,1001.1
2017-08-04T08:59:36.013Z,1001.2
2017-08-04T09:00:38.480Z,1001.1
2017-08-04T09:01:40.921Z,1001
2017-08-04T09:02:43.394Z,1001
2017-08-04T09:03:46.183Z,1001.1
2017-08-04T09:04:48.639Z,1001
2017-08-04T09:05:51.092Z,1001.1
2017-08-04T09:06:53.561Z,1001
2017-08-04T09:07:56.361Z,1001.1
2017-08-04T09:08:58.809Z,1001
2017-08-04T09:10:01.288Z,1001.1
2017-08-04T09:11:04.095Z,1001.3
2017-08-04T09:12:07.224Z,1001.2
2017-08-04T09:13:09.680Z,1001.1
2017-08-04T09:14:12.125Z,1001.2
2017-08-04T09:15:14.572Z,1001
2017-08-04T09:16:17.032Z,1001.1
2017-08-04T09:17:19.470Z,1001.1
2017-08-04T09:18:21.925Z,1001
2017-08-04T09:19:24.730Z,1001.1
2017-08-04T09:20:27.525Z,1001.1
2017-08-04T09:21:30.328Z,1001
2017-08-04T09:22:32.788Z,1001.1
2017-08-04T09:23:35.243Z,1001
2017-08-04T09:24:37.707Z,1001
2017-08-04T09:25:40.174Z,1001
2017-08-04T09:26:42.970Z,1001
2017-08-04T09:27:45.777Z,1001
2017-08-04T09:28:48.244Z,1001.1
2017-08-04T09:29:50.698Z,1001.2
2017-08-04T09:30:53.502Z,1001.2
2017-08-04T09:31:56.306Z,1001.2
2017-08-04T09:32:58.769Z,1001.2
2017-08-04T09:34:01.573Z,1001.1
2017-08-04T09:35:04.397Z,1001.1
2017-08-04T09:36:07.596Z,1001.1
2017-08-04T09:37:10.056Z,1001.1
2017-08-04T09:38:12.887Z,1001.2
2017-08-04T09:39:15.352Z,1001.2
2017-08-04T09:40:17.812Z,1001.1
2017-08-04T09:41:20.297Z,1001.2
2017-08-04T09:42:23.106Z,1001.2
2017-08-04T09:43:25.558Z,1001.2
2017-08-04T09:44:28.022Z,1001.1
2017-08-04T09:45:30.481Z,1001.2
2017-08-04T09:46:32.939Z,1001.2
2017-08-04T09:47:35.423Z,1001.2
2017-08-04T09:48:37.886Z,1001.2
2017-08-04T09:49:40.693Z,1001.1
2017-08-04T09:50:43.150Z,1001.2
2017-08-04T09:51:45.609Z,1001.1
2017-08-04T09:52:48.069Z,1001.1
2017-08-04T09:53:50.552Z,1001.1
2017-08-04T09:54:53.009Z,1001.2
2017-08-04T09:55:55.807Z,1001.2
2017-08-04T09:56:58.273Z,1001.1
2017-08-04T09:58:00.739Z,1001.2
2017-08-04T09:59:03.204Z,1001.1
2017-08-04T10:00:05.688Z,1001.3
2017-08-04T10:01:08.476Z,1001.2
2017-08-04T10:02:11.636Z,1001.2
2017-08-04T10:03:14.098Z,1001.2
2017-08-04T10:04:16.555Z,1001.2
2017-08-04T10:05:19.016Z,1001.2
2017-08-04T10:06:21.822Z,1001.2
2017-08-04T10:07:24.618Z,1001.1
2017-08-04T10:08:27.405Z,1001.1
2017-08-04T10:09:29.887Z,1001.1
2017-08-04T10:10:32.689Z,1001.1
2017-08-04T10:11:35.506Z,1001.2
2017-08-04T10:12:38.306Z,1001.1
2017-08-04T10:13:40.760Z,1001.1
2017-08-04T10:14:43.213Z,1001.1
2017-08-04T10:15:46.360Z,1001.1
2017-08-04T10:16:48.817Z,1001
2017-08-04T10:17:51.274Z,1001.1
2017-08-04T10:18:53.754Z,1001.1
2017-08-04T10:19:56.207Z,1001.1
2017-08-04T10:20:58.667Z,1001.2
2017-08-04T10:22:01.470Z,1001.1
2017-08-04T10:23:04.265Z,1001.2
2017-08-04T10:24:07.061Z,1001.2
2017-08-04T10:25:09.520Z,1001.3
2017-08-04T10:26:12.330Z,1001.2
2017-08-04T10:27:14.810Z,1001.2
2017-08-04T10:28:17.277Z,1001.3
2017-08-04T10:29:19.737Z,1001.2
2017-08-04T10:30:22.188Z,1001.2
2017-08-04T10:31:24.646Z,1001.2
2017-08-04T10:32:27.106Z,1001.2
2017-08-04T10:33:29.575Z,1001.3
2017-08-04T10:34:32.041Z,1001.1
2017-08-04T10:35:34.480Z,1001.2
2017-08-04T10:36:36.951Z,1001.3
2017-08-04T10:37:39.756Z,1001.3
2017-08-04T10:38:42.212Z,1001.2
2017-08-04T10:39:44.670Z,1001.2
2017-08-04T10:40:47.159Z,1001.2
2017-08-04T10:41:49.627Z,1001.2
2017-08-04T10:42:52.076Z,1001.2
2017-08-04T10:43:54.546Z,1001.1
2017-08-04T10:44:57.016Z,1001.2
2017-08-04T10:45:59.476Z,1001.2
2017-08-04T10:47:01.937Z,1001.3
2017-08-04T10:48:04.389Z,1001.3
2017-08-04T10:49:06.840Z,1001.3
2017-08-04T10:50:09.643Z,1001.3
2017-08-04T10:51:12.110Z,1001.4
2017-08-04T10:52:14.571Z,1001.4
2017-08-04T10:53:17.023Z,1001.4
2017-08-04T10:54:19.834Z,1001.4
2017-08-04T10:55:22.307Z,1001.3
2017-08-04T10:56:24.774Z,1001.4
2017-08-04T10:57:27.235Z,1001.3
2017-08-04T10:58:30.027Z,1001.4
2017-08-04T10:59:32.495Z,1001.3
2017-08-04T11:00:34.961Z,1001.2
2017-08-04T11:01:37.763Z,1001.1
2017-08-04T11:02:40.556Z,1001.2
2017-08-04T11:03:43.022Z,1001.1
2017-08-04T11:04:46.498Z,1001.1
2017-08-04T11:05:48.975Z,1001.2
2017-08-04T11:06:51.434Z,1001.3
2017-08-04T11:07:54.244Z,1001.2
2017-08-04T11:08:56.695Z,1001
2017-08-04T11:09:59.164Z,1001.1
2017-08-04T11:11:01.621Z,1001
2017-08-04T11:12:05.451Z,1001.1
2017-08-04T11:13:08.576Z,1001
2017-08-04T11:14:11.391Z,1001.2
2017-08-04T11:15:14.202Z,1001.2
2017-08-04T11:16:17.016Z,1001.2
2017-08-04T11:17:19.469Z,1001.2
2017-08-04T11:18:22.277Z,1001.1
2017-08-04T11:19:25.071Z,1001.2
2017-08-04T11:20:27.531Z,1001.2
2017-08-04T11:21:29.992Z,1001.2
2017-08-04T11:22:32.799Z,1001.2
2017-08-04T11:23:35.251Z,1001.2
2017-08-04T11:24:38.090Z,1001
2017-08-04T11:25:41.270Z,1001
2017-08-04T11:26:44.061Z,1001
2017-08-04T11:27:46.542Z,1001
2017-08-04T11:28:49.009Z,1001
2017-08-04T11:29:51.478Z,1001
2017-08-04T11:30:54.299Z,1001
2017-08-04T11:31:56.765Z,1001.2
2017-08-04T11:32:59.215Z,1001.1
2017-08-04T11:34:02.029Z,1001.1
2017-08-04T11:35:04.485Z,1001
2017-08-04T11:36:07.288Z,1001
2017-08-04T11:37:09.772Z,1001.1
2017-08-04T11:38:13.273Z,1001.1
2017-08-04T11:39:15.744Z,1001.1
2017-08-04T11:40:18.194Z,1001.1
2017-08-04T11:41:20.670Z,1001.3
2017-08-04T11:42:23.131Z,1001.1
2017-08-04T11:43:25.629Z,1001.1
2017-08-04T11:44:28.096Z,1001.2
2017-08-04T11:45:30.912Z,1001.3
2017-08-04T11:46:34.119Z,1001.3
2017-08-04T11:47:36.981Z,1001.3
2017-08-04T11:48:39.487Z,1001.3
2017-08-04T11:49:42.023Z,1001.4
2017-08-04T11:50:45.250Z,1001.4
2017-08-04T11:51:48.104Z,1001.4
2017-08-04T11:52:50.948Z,1001.5
2017-08-04T11:53:53.472Z,1001.4
2017-08-04T11:54:56.021Z,1001.3
2017-08-04T11:55:58.555Z,1001.5
2017-08-04T11:57:01.045Z,1001.3
2017-08-04T11:58:04.244Z,1001.2
2017-08-04T11:59:07.117Z,1001.3
2017-08-04T12:00:09.968Z,1001.4
2017-08-04T12:01:12.500Z,1001.3
2017-08-04T12:02:15.020Z,1001.4
2017-08-04T12:03:17.862Z,1001.3
2017-08-04T12:04:20.721Z,1001.3
2017-08-04T12:05:23.573Z,1001.3
2017-08-04T12:06:26.083Z,1001.3
2017-08-04T12:07:28.588Z,1001.3
2017-08-04T12:08:31.104Z,1001.4
2017-08-04T12:09:33.611Z,1001.6
2017-08-04T12:10:36.114Z,1001.5
2017-08-04T12:11:38.648Z,1001.4
2017-08-04T12:12:41.150Z,1001.4
2017-08-04T12:13:43.985Z,1001.3
2017-08-04T12:14:47.178Z,1001.3
2017-08-04T12:15:50.003Z,1001.4
2017-08-04T12:16:52.892Z,1001.4
2017-08-04T12:17:55.744Z,1001.3
2017-08-04T12:18:58.259Z,1001.2
2017-08-04T12:20:00.769Z,1001.3
2017-08-04T12:21:03.625Z,1001.2
2017-08-04T12:22:06.127Z,1001.3
2017-08-04T12:23:09.011Z,1001.4
2017-08-04T12:24:12.201Z,1001.3
2017-08-04T12:25:15.053Z,1001.3
2017-08-04T12:26:17.564Z,1001.3
2017-08-04T12:27:20.428Z,1001.3
2017-08-04T12:28:22.948Z,1001.3
2017-08-04T12:29:25.479Z,1001.3
2017-08-04T12:30:28.316Z,1001.3
2017-08-04T12:31:31.529Z,1001.4
2017-08-04T12:32:34.043Z,1001.4
2017-08-04T12:33:36.549Z,1001.3
2017-08-04T12:34:39.386Z,1001.3
2017-08-04T12:35:41.888Z,1001.3
2017-08-04T12:36:44.397Z,1001.3
2017-08-04T12:37:46.899Z,1001.3
2017-08-04T12:38:49.405Z,1001.3
2017-08-04T12:39:51.935Z,1001.3
2017-08-04T12:40:54.434Z,1001.3
2017-08-04T12:41:57.629Z,1001.2
2017-08-04T12:43:00.144Z,1001.2
2017-08-04T12:44:02.642Z,1001.3
2017-08-04T12:45:05.481Z,1001.3
2017-08-04T12:46:08.693Z,1001.3
2017-08-04T12:47:11.546Z,1001.3
2017-08-04T12:48:14.072Z,1001.2
2017-08-04T12:49:16.943Z,1001.3
2017-08-04T12:50:19.443Z,1001.2
2017-08-04T12:51:22.282Z,1001.3
2017-08-04T12:52:25.121Z,1001
2017-08-04T12:53:27.959Z,1001.2
2017-08-04T12:54:30.484Z,1001.3
2017-08-04T12:55:33.328Z,1001.3
2017-08-04T12:56:36.145Z,1001.4
2017-08-04T12:57:38.669Z,1001.3
2017-08-04T12:58:41.504Z,1001.3
2017-08-04T12:59:44.003Z,1001.2
2017-08-04T13:00:46.537Z,1001.3
2017-08-04T13:01:49.526Z,1001.5
2017-08-04T13:02:52.052Z,1001.4
2017-08-04T13:03:55.436Z,1001.4